createdAt,value
2022-09-28T00:01:22.591Z,25.79
2022-09-28T00:03:55.269Z,25.78
2022-09-28T00:06:30.744Z,25.83
2022-09-28T00:09:07.507Z,25.41
2022-09-28T00:11:37.042Z,25.29
2022-09-28T00:14:08.477Z,25.21
2022-09-28T00:16:45.873Z,25.18
2022-09-28T00:19:18.463Z,25.02
2022-09-28T00:21:50.088Z,24.98
2022-09-28T00:24:27.348Z,24.92
2022-09-28T00:26:58.916Z,24.74
2022-09-28T00:29:36.516Z,24.58
2022-09-28T00:32:14.754Z,24.46
2022-09-28T00:34:49.782Z,24.26
2022-09-28T00:37:20.609Z,24.12
2022-09-28T00:39:50.398Z,24.07
2022-09-28T00:42:22.484Z,23.95
2022-09-28T00:44:56.828Z,24.01
2022-09-28T00:47:44.620Z,23.88
2022-09-28T00:50:46.888Z,23.95
2022-09-28T00:53:26.921Z,23.96
2022-09-28T00:56:08.332Z,23.72
2022-09-28T00:58:45.224Z,23.68
2022-09-28T01:01:15.698Z,23.66
2022-09-28T01:03:49.666Z,23.60
2022-09-28T01:06:23.379Z,23.60
2022-09-28T01:08:59.338Z,23.71
2022-09-28T01:11:45.911Z,23.97
2022-09-28T01:14:21.860Z,24.09
2022-09-28T01:17:23.635Z,23.98
2022-09-28T01:20:40.710Z,24.06
2022-09-28T01:23:50.409Z,24.16
2022-09-28T01:26:34.651Z,24.20
2022-09-28T01:29:25.479Z,24.19
2022-09-28T01:32:22.612Z,24.18
2022-09-28T01:35:06.663Z,24.13
2022-09-28T01:37:53.980Z,23.90
2022-09-28T01:40:31.210Z,23.87
2022-09-28T01:43:28.006Z,23.71
2022-09-28T01:46:21.603Z,23.76
2022-09-28T01:49:12.205Z,23.57
2022-09-28T01:51:52.535Z,23.50
2022-09-28T01:54:51.460Z,23.55
2022-09-28T01:57:56.099Z,23.42
2022-09-28T02:00:32.266Z,23.34
2022-09-28T02:03:33.067Z,23.25
2022-09-28T02:06:17.228Z,23.16
2022-09-28T02:08:57.787Z,23.06
2022-09-28T02:11:55.317Z,22.95
2022-09-28T02:14:41.017Z,22.79
2022-09-28T02:17:15.274Z,22.68
2022-09-28T02:19:48.274Z,22.62
2022-09-28T02:22:54.512Z,22.53
2022-09-28T02:25:52.864Z,22.43
2022-09-28T02:28:33.048Z,22.24
2022-09-28T02:31:06.214Z,21.94
2022-09-28T02:33:39.476Z,21.93
2022-09-28T02:36:19.079Z,22.00
2022-09-28T02:38:49.819Z,21.97
2022-09-28T02:41:52.545Z,21.83
2022-09-28T02:45:23.048Z,21.65
2022-09-28T02:48:36.115Z,21.63
2022-09-28T02:56:29.520Z,21.46
2022-09-28T02:59:32.239Z,21.41
2022-09-28T03:02:20.229Z,21.10
2022-09-28T03:05:07.263Z,21.21
2022-09-28T03:07:58.604Z,21.26
2022-09-28T03:10:47.827Z,21.34
2022-09-28T03:13:17.970Z,21.20
2022-09-28T03:15:48.990Z,21.17
2022-09-28T03:18:19.800Z,21.06
2022-09-28T03:20:50.570Z,21.04
2022-09-28T03:23:24.834Z,20.89
2022-09-28T03:25:57.990Z,20.89
2022-09-28T03:28:28.066Z,20.86
2022-09-28T03:31:05.860Z,20.86
2022-09-28T03:33:54.100Z,20.72
2022-09-28T03:37:12.639Z,20.71
2022-09-28T03:39:51.224Z,20.53
2022-09-28T03:42:26.637Z,20.55
2022-09-28T03:44:57.575Z,20.60
2022-09-28T03:47:36.265Z,20.48
2022-09-28T03:50:08.030Z,20.47
2022-09-28T03:52:37.640Z,20.55
2022-09-28T03:55:07.349Z,20.57
2022-09-28T03:57:45.156Z,20.64
2022-09-28T04:00:15.614Z,20.56
2022-09-28T04:02:48.433Z,20.49
2022-09-28T04:05:17.832Z,20.54
2022-09-28T04:07:47.288Z,20.46
2022-09-28T04:10:16.839Z,20.53
2022-09-28T04:12:46.889Z,20.38
2022-09-28T04:15:17.291Z,20.38
2022-09-28T04:17:46.699Z,20.22
2022-09-28T04:20:34.264Z,20.07
2022-09-28T04:23:20.964Z,19.88
2022-09-28T04:25:54.409Z,20.05
2022-09-28T04:28:46.809Z,19.80
2022-09-28T04:31:22.049Z,19.59
2022-09-28T04:33:51.507Z,19.55
2022-09-28T04:36:24.110Z,19.41
2022-09-28T04:38:54.460Z,19.20
2022-09-28T04:41:26.286Z,19.25
2022-09-28T04:43:55.601Z,18.69
2022-09-28T04:46:27.274Z,18.75
2022-09-28T04:49:22.993Z,18.53
2022-09-28T04:51:56.180Z,18.74
2022-09-28T04:54:25.768Z,18.60
2022-09-28T04:56:56.314Z,18.47
2022-09-28T04:59:27.038Z,18.12
2022-09-28T05:01:56.565Z,17.96
2022-09-28T05:05:03.128Z,17.84
2022-09-28T05:07:47.060Z,17.58
2022-09-28T05:10:16.964Z,17.55
2022-09-28T05:12:46.152Z,17.47
2022-09-28T05:15:15.356Z,17.56
2022-09-28T05:17:44.779Z,17.56
2022-09-28T05:20:30.773Z,17.50
2022-09-28T05:23:00.198Z,17.43
2022-09-28T05:25:29.792Z,17.39
2022-09-28T05:28:25.901Z,17.21
2022-09-28T05:31:16.145Z,17.08
2022-09-28T05:34:11.724Z,16.78
2022-09-28T05:36:43.548Z,16.95
2022-09-28T05:39:13.234Z,17.04
2022-09-28T05:41:42.622Z,17.13
2022-09-28T05:44:11.669Z,16.88
2022-09-28T05:46:41.122Z,16.99
2022-09-28T05:49:11.726Z,17.01
2022-09-28T05:51:41.105Z,16.72
2022-09-28T05:54:11.141Z,16.97
2022-09-28T05:56:44.153Z,16.99
2022-09-28T05:59:14.346Z,16.95
2022-09-28T06:01:44.406Z,16.85
2022-09-28T06:04:15.525Z,16.74
2022-09-28T06:06:45.738Z,16.55
2022-09-28T06:09:15.448Z,16.23
2022-09-28T06:12:03.067Z,16.03
2022-09-28T06:14:41.186Z,15.99
2022-09-28T06:17:10.661Z,16.10
2022-09-28T06:19:40.249Z,16.16
2022-09-28T06:22:19.157Z,16.23
2022-09-28T06:24:56.998Z,16.48
2022-09-28T06:27:26.962Z,16.35
2022-09-28T06:29:56.532Z,16.47
2022-09-28T06:32:26.022Z,16.46
2022-09-28T06:34:56.488Z,16.41
2022-09-28T06:37:28.649Z,16.08
2022-09-28T06:39:58.583Z,16.15
2022-09-28T06:42:28.049Z,16.31
2022-09-28T06:45:22.755Z,16.05
2022-09-28T06:48:08.117Z,15.98
2022-09-28T06:50:44.654Z,15.73
2022-09-28T06:53:26.570Z,16.12
2022-09-28T06:56:03.659Z,16.09
2022-09-28T06:58:33.193Z,16.08
2022-09-28T07:01:08.035Z,15.93
2022-09-28T07:03:46.094Z,15.97
2022-09-28T07:06:29.712Z,16.00
2022-09-28T07:09:32.602Z,15.82
2022-09-28T07:12:25.342Z,15.97
2022-09-28T07:14:58.224Z,15.91
2022-09-28T07:17:31.114Z,15.76
2022-09-28T07:20:14.371Z,15.58
2022-09-28T07:22:49.260Z,15.77
2022-09-28T07:25:23.364Z,15.88
2022-09-28T07:28:07.895Z,15.81
2022-09-28T07:31:00.017Z,15.95
2022-09-28T07:33:52.181Z,15.91
2022-09-28T07:36:37.460Z,15.90
2022-09-28T07:39:16.221Z,16.12
2022-09-28T07:41:45.407Z,16.10
2022-09-28T07:44:14.567Z,15.93
2022-09-28T07:46:44.300Z,15.94
2022-09-28T07:49:23.840Z,15.97
2022-09-28T07:52:16.096Z,15.98
2022-09-28T07:55:07.181Z,15.88
2022-09-28T07:58:03.185Z,15.91
2022-09-28T08:00:52.812Z,15.89
2022-09-28T08:03:25.389Z,15.91
2022-09-28T08:06:02.969Z,15.87
2022-09-28T08:08:34.398Z,15.85
2022-09-28T08:11:04.697Z,15.84
2022-09-28T08:13:56.351Z,15.83
2022-09-28T08:17:06.291Z,15.75
2022-09-28T08:20:13.917Z,15.81
2022-09-28T08:22:43.831Z,15.61
2022-09-28T08:25:13.465Z,15.83
2022-09-28T08:27:42.685Z,15.64
2022-09-28T08:30:13.366Z,15.48
2022-09-28T08:33:02.742Z,15.68
2022-09-28T08:35:44.349Z,15.79
2022-09-28T08:38:23.984Z,15.87
2022-09-28T08:41:18.042Z,15.71
2022-09-28T08:44:25.969Z,15.90
2022-09-28T08:47:59.645Z,15.79
2022-09-28T08:51:01.476Z,15.78
2022-09-28T08:54:12.046Z,15.69
2022-09-28T08:57:00.883Z,15.65
2022-09-28T08:59:54.813Z,15.67
2022-09-28T09:02:37.646Z,15.71
2022-09-28T09:05:24.324Z,15.66
2022-09-28T09:08:19.978Z,15.51
2022-09-28T09:11:38.080Z,15.54
2022-09-28T09:14:28.705Z,15.52
2022-09-28T09:17:01.852Z,15.52
2022-09-28T09:20:13.663Z,15.34
2022-09-28T09:23:19.415Z,15.36
2022-09-28T09:25:55.871Z,15.16
2022-09-28T09:28:52.573Z,15.29
2022-09-28T09:31:33.059Z,15.44
2022-09-28T09:34:19.957Z,15.33
2022-09-28T09:37:00.696Z,15.33
2022-09-28T09:40:11.890Z,14.67
2022-09-28T09:43:38.357Z,15.05
2022-09-28T09:46:40.504Z,14.93
2022-09-28T09:49:50.359Z,14.86
2022-09-28T09:55:17.788Z,14.65
2022-09-28T09:58:03.513Z,14.20
2022-09-28T10:00:48.610Z,14.77
2022-09-28T10:03:49.085Z,14.94
2022-09-28T10:06:37.847Z,14.97
2022-09-28T10:09:18.348Z,14.92
2022-09-28T10:11:51.115Z,14.68
2022-09-28T10:14:25.940Z,14.72
2022-09-28T10:17:04.733Z,14.85
2022-09-28T10:19:52.284Z,14.75
2022-09-28T10:22:48.155Z,14.71
2022-09-28T10:25:21.156Z,14.31
2022-09-28T10:27:53.441Z,14.55
2022-09-28T10:30:26.827Z,14.56
2022-09-28T10:33:00.093Z,14.45
2022-09-28T10:35:45.113Z,14.60
2022-09-28T10:38:19.064Z,14.56
2022-09-28T10:41:22.154Z,14.53
2022-09-28T10:44:08.270Z,14.52
2022-09-28T10:46:58.285Z,14.47
2022-09-28T10:49:31.341Z,14.44
2022-09-28T10:52:00.803Z,14.31
2022-09-28T10:54:35.827Z,14.18
2022-09-28T10:57:24.908Z,14.38
2022-09-28T11:00:01.175Z,14.36
2022-09-28T11:02:42.474Z,14.35
2022-09-28T11:05:24.076Z,14.35
2022-09-28T11:07:58.408Z,14.06
2022-09-28T11:10:35.502Z,13.99
2022-09-28T11:13:15.590Z,14.17
2022-09-28T11:15:52.337Z,14.17
2022-09-28T11:18:33.251Z,14.18
2022-09-28T11:21:44.208Z,13.98
2022-09-28T11:24:19.319Z,13.60
2022-09-28T11:26:53.838Z,13.79
2022-09-28T11:29:39.412Z,13.83
2022-09-28T11:32:41.353Z,13.93
2022-09-28T11:35:35.255Z,13.74
2022-09-28T11:38:26.427Z,13.94
2022-09-28T11:41:34.172Z,13.65
2022-09-28T11:44:30.858Z,13.56
2022-09-28T11:47:28.068Z,13.45
2022-09-28T11:50:43.295Z,13.43
2022-09-28T11:53:15.640Z,13.46
2022-09-28T11:56:27.789Z,13.54
2022-09-28T11:59:01.749Z,13.31
2022-09-28T12:01:50.672Z,13.99
2022-09-28T12:04:34.449Z,13.90
2022-09-28T12:07:17.362Z,14.11
2022-09-28T12:10:12.815Z,13.72
2022-09-28T12:13:05.445Z,13.88
2022-09-28T12:16:06.882Z,13.92
2022-09-28T12:18:43.259Z,14.16
2022-09-28T12:21:30.853Z,14.19
2022-09-28T12:24:14.755Z,14.06
2022-09-28T12:26:53.250Z,13.98
2022-09-28T12:29:29.606Z,14.03
2022-09-28T12:32:13.880Z,13.96
2022-09-28T12:34:44.264Z,13.62
2022-09-28T12:37:42.473Z,13.93
2022-09-28T12:40:28.004Z,14.04
2022-09-28T12:43:15.892Z,13.86
2022-09-28T12:46:12.432Z,13.99
2022-09-28T12:52:38.787Z,13.86
2022-09-28T12:55:25.096Z,13.85
2022-09-28T12:57:59.200Z,13.90
2022-09-28T13:00:40.921Z,13.98
2022-09-28T13:03:43.457Z,13.92
2022-09-28T13:06:15.639Z,13.92
2022-09-28T13:09:21.051Z,13.92
2022-09-28T13:11:59.687Z,14.00
2022-09-28T13:14:59.152Z,13.88
2022-09-28T13:17:41.560Z,13.97
2022-09-28T13:20:33.640Z,13.93
2022-09-28T13:23:26.592Z,13.83
2022-09-28T13:26:11.882Z,13.90
2022-09-28T13:28:46.261Z,13.78
2022-09-28T13:31:21.800Z,13.63
2022-09-28T13:33:52.487Z,13.61
2022-09-28T13:36:27.895Z,13.77
2022-09-28T13:39:02.134Z,13.90
2022-09-28T13:41:37.823Z,13.91
2022-09-28T13:44:17.736Z,13.94
2022-09-28T13:46:47.245Z,13.83
2022-09-28T13:49:33.685Z,13.74
2022-09-28T13:53:00.628Z,13.84
2022-09-28T13:55:38.155Z,13.84
2022-09-28T13:58:35.754Z,13.69
2022-09-28T14:01:08.277Z,13.75
2022-09-28T14:04:12.794Z,13.69
2022-09-28T14:06:53.552Z,13.74
2022-09-28T14:09:42.684Z,13.78
2022-09-28T14:12:36.552Z,13.76
2022-09-28T14:15:31.645Z,13.55
2022-09-28T14:18:27.279Z,13.48
2022-09-28T14:20:59.548Z,13.48
2022-09-28T14:23:57.559Z,13.57
2022-09-28T14:26:44.966Z,13.68
2022-09-28T14:29:30.545Z,13.65
2022-09-28T14:32:13.256Z,13.86
2022-09-28T14:34:52.606Z,14.07
2022-09-28T14:37:44.914Z,13.93
2022-09-28T14:40:49.976Z,13.98
2022-09-28T14:43:47.030Z,14.09
2022-09-28T14:46:16.601Z,14.06
2022-09-28T14:48:52.224Z,14.10
2022-09-28T14:51:41.619Z,14.06
2022-09-28T14:54:19.942Z,14.00
2022-09-28T14:56:57.985Z,14.15
2022-09-28T14:59:37.155Z,14.00
2022-09-28T15:02:12.462Z,14.09
2022-09-28T15:05:14.160Z,13.88
2022-09-28T15:07:50.385Z,13.84
2022-09-28T15:10:32.581Z,13.91
2022-09-28T15:13:26.863Z,14.06
2022-09-28T15:16:11.055Z,14.06
2022-09-28T15:19:04.979Z,14.13
2022-09-28T15:21:40.913Z,14.22
2022-09-28T15:24:34.619Z,14.19
2022-09-28T15:27:14.906Z,14.37
2022-09-28T15:29:58.865Z,14.16
2022-09-28T15:32:30.460Z,14.58
2022-09-28T15:35:18.150Z,14.47
2022-09-28T15:37:52.919Z,14.31
2022-09-28T15:40:39.097Z,14.49
2022-09-28T15:43:29.933Z,14.68
2022-09-28T15:46:09.736Z,14.70
2022-09-28T15:48:56.369Z,14.65
2022-09-28T15:51:26.961Z,14.79
2022-09-28T15:53:59.306Z,15.05
2022-09-28T15:56:29.759Z,14.99
2022-09-28T15:59:17.349Z,14.98
2022-09-28T16:01:47.139Z,15.06
2022-09-28T16:04:41.106Z,15.22
2022-09-28T16:07:24.671Z,15.07
2022-09-28T16:10:08.577Z,15.02
2022-09-28T16:12:38.888Z,15.18
2022-09-28T16:15:35.282Z,15.02
2022-09-28T16:18:26.603Z,15.25
2022-09-28T16:21:02.166Z,15.12
2022-09-28T16:23:35.248Z,15.27
2022-09-28T16:26:18.782Z,15.24
2022-09-28T16:28:52.694Z,15.41
2022-09-28T16:31:22.119Z,15.29
2022-09-28T16:33:57.014Z,15.35
2022-09-28T16:36:40.280Z,15.10
2022-09-28T16:39:12.601Z,15.22
2022-09-28T16:41:45.895Z,15.41
2022-09-28T16:44:25.782Z,15.34
2022-09-28T16:46:58.629Z,15.39
2022-09-28T16:49:29.178Z,15.39
2022-09-28T16:51:58.391Z,15.42
2022-09-28T16:54:45.732Z,15.36
2022-09-28T16:57:16.693Z,15.35
2022-09-28T16:59:46.861Z,15.21
2022-09-28T17:05:12.023Z,15.64
2022-09-28T17:07:48.045Z,15.49
2022-09-28T17:10:50.060Z,15.39
2022-09-28T17:13:32.430Z,15.74
2022-09-28T17:16:12.881Z,15.74
2022-09-28T17:18:43.139Z,15.59
2022-09-28T17:21:22.114Z,15.65
2022-09-28T17:23:51.768Z,15.71
2022-09-28T17:26:34.347Z,16.00
2022-09-28T17:29:04.038Z,15.89
2022-09-28T17:31:33.235Z,15.76
2022-09-28T17:34:02.697Z,15.84
2022-09-28T17:36:31.886Z,15.98
2022-09-28T17:39:01.481Z,15.94
2022-09-28T17:41:30.564Z,16.19
2022-09-28T17:44:01.130Z,16.21
2022-09-28T17:46:39.667Z,16.22
2022-09-28T17:49:13.077Z,16.16
2022-09-28T17:51:42.693Z,16.17
2022-09-28T17:54:17.387Z,16.24
2022-09-28T17:56:49.703Z,16.22
2022-09-28T17:59:21.727Z,16.13
2022-09-28T18:01:54.125Z,16.09
2022-09-28T18:04:50.181Z,16.22
2022-09-28T18:07:18.264Z,15.99
2022-09-28T18:09:57.778Z,15.90
2022-09-28T18:12:30.077Z,16.05
2022-09-28T18:15:01.161Z,16.11
2022-09-28T18:17:31.055Z,16.12
2022-09-28T18:20:00.878Z,16.12
2022-09-28T18:22:31.114Z,15.89
2022-09-28T18:25:01.206Z,15.97
2022-09-28T18:27:37.070Z,16.01
2022-09-28T18:30:08.793Z,15.92
2022-09-28T18:32:40.130Z,15.87
2022-09-28T18:35:29.616Z,15.84
2022-09-28T18:38:00.230Z,15.84
2022-09-28T18:40:29.887Z,15.86
2022-09-28T18:43:00.037Z,15.82
2022-09-28T18:45:31.274Z,15.72
2022-09-28T18:48:03.536Z,15.79
2022-09-28T18:50:36.365Z,15.65
2022-09-28T18:53:14.615Z,15.56
2022-09-28T18:55:45.707Z,15.63
2022-09-28T18:58:15.127Z,15.70
2022-09-28T19:00:44.706Z,15.65
2022-09-28T19:03:16.383Z,15.78
2022-09-28T19:05:47.134Z,15.87
2022-09-28T19:08:19.036Z,16.02
2022-09-28T19:10:49.534Z,15.90
2022-09-28T19:13:18.716Z,15.91
2022-09-28T19:15:49.708Z,15.94
2022-09-28T19:18:18.990Z,15.82
2022-09-28T19:20:49.388Z,15.94
2022-09-28T19:23:19.134Z,16.19
2022-09-28T19:25:48.349Z,16.30
2022-09-28T19:28:17.598Z,16.37
2022-09-28T19:31:10.495Z,16.24
2022-09-28T19:33:41.806Z,16.13
2022-09-28T19:36:17.562Z,16.13
2022-09-28T19:38:47.603Z,16.10
2022-09-28T19:41:43.673Z,16.29
2022-09-28T19:44:25.700Z,16.35
2022-09-28T19:47:01.661Z,16.57
2022-09-28T19:49:34.056Z,16.68
2022-09-28T19:52:18.977Z,16.65
2022-09-28T19:54:57.591Z,16.75
2022-09-28T19:57:33.581Z,16.78
2022-09-28T20:00:09.777Z,16.82
2022-09-28T20:02:43.220Z,16.74
2022-09-28T20:05:17.591Z,16.67
2022-09-28T20:07:49.650Z,16.74
2022-09-28T20:10:19.372Z,16.88
2022-09-28T20:12:49.395Z,16.79
2022-09-28T20:15:18.763Z,16.56
2022-09-28T20:17:50.858Z,16.56
2022-09-28T20:20:23.391Z,16.49
2022-09-28T20:22:54.348Z,16.53
2022-09-28T20:25:25.542Z,16.76
2022-09-28T20:27:58.256Z,16.97
2022-09-28T20:30:27.532Z,16.82
2022-09-28T20:33:28.964Z,16.93
2022-09-28T20:36:00.238Z,16.83
2022-09-28T20:38:29.866Z,16.77
2022-09-28T20:41:03.696Z,16.91
2022-09-28T20:43:35.841Z,16.80
2022-09-28T20:46:07.355Z,17.23
2022-09-28T20:48:36.656Z,17.28
2022-09-28T20:51:24.285Z,17.36
2022-09-28T20:53:56.328Z,17.43
2022-09-28T20:56:38.974Z,17.39
2022-09-28T20:59:39.629Z,17.21
2022-09-28T21:02:14.128Z,17.26
2022-09-28T21:05:11.981Z,17.33
2022-09-28T21:07:41.418Z,17.32
2022-09-28T21:10:11.179Z,17.40
2022-09-28T21:12:43.237Z,17.44
2022-09-28T21:15:14.254Z,17.21
2022-09-28T21:17:46.845Z,17.66
2022-09-28T21:20:19.745Z,17.62
2022-09-28T21:22:48.980Z,17.78
2022-09-28T21:25:20.982Z,17.49
2022-09-28T21:27:51.396Z,17.65
2022-09-28T21:30:21.057Z,17.86
2022-09-28T21:32:53.047Z,17.67
2022-09-28T21:35:22.568Z,17.42
2022-09-28T21:37:51.788Z,17.53
2022-09-28T21:40:21.379Z,17.54
2022-09-28T21:42:50.688Z,17.74
2022-09-28T21:45:21.349Z,17.80
2022-09-28T21:47:54.041Z,17.80
2022-09-28T21:50:25.062Z,17.77
2022-09-28T21:52:56.216Z,17.74
2022-09-28T21:55:25.714Z,17.62
2022-09-28T21:57:54.762Z,17.65
2022-09-28T22:00:27.222Z,17.90
2022-09-28T22:02:58.012Z,18.25
2022-09-28T22:05:27.465Z,18.48
2022-09-28T22:07:56.515Z,18.52
2022-09-28T22:10:25.788Z,18.39
2022-09-28T22:12:54.924Z,18.15
2022-09-28T22:15:24.540Z,17.94
2022-09-28T22:17:53.636Z,18.24
2022-09-28T22:20:23.543Z,18.12
2022-09-28T22:22:55.538Z,18.09
2022-09-28T22:25:24.824Z,18.37
2022-09-28T22:27:54.087Z,18.55
2022-09-28T22:30:23.508Z,18.59
2022-09-28T22:32:52.613Z,18.61
2022-09-28T22:35:21.789Z,18.60
2022-09-28T22:37:51.074Z,18.76
2022-09-28T22:40:21.054Z,19.25
2022-09-28T22:42:50.420Z,19.57
2022-09-28T22:45:20.022Z,19.31
2022-09-28T22:47:49.428Z,19.15
2022-09-28T22:50:21.694Z,18.69
2022-09-28T22:52:52.253Z,18.81
2022-09-28T22:55:22.968Z,18.94
2022-09-28T22:57:52.261Z,18.69
2022-09-28T23:00:24.305Z,18.50
2022-09-28T23:02:53.622Z,18.43
2022-09-28T23:05:22.782Z,18.80
2022-09-28T23:07:52.260Z,18.69
2022-09-28T23:10:24.565Z,18.47
2022-09-28T23:12:57.255Z,18.19
2022-09-28T23:15:27.096Z,18.51
2022-09-28T23:17:57.196Z,18.75
2022-09-28T23:20:26.919Z,18.69
2022-09-28T23:22:56.137Z,18.51
2022-09-28T23:25:25.326Z,18.59
2022-09-28T23:27:54.534Z,18.60
2022-09-28T23:30:25.940Z,18.64
2022-09-28T23:32:55.102Z,18.53
2022-09-28T23:35:29.713Z,18.46
2022-09-28T23:37:59.134Z,18.55
2022-09-28T23:40:28.493Z,18.51
2022-09-28T23:42:58.003Z,18.71
2022-09-28T23:45:34.380Z,18.55
2022-09-28T23:48:04.016Z,18.58
2022-09-28T23:50:33.347Z,18.39
2022-09-28T23:53:24.916Z,18.60
2022-09-28T23:56:00.413Z,18.75
2022-09-28T23:58:34.540Z,18.80
